logo
Search for airport 
image banner adimage banner adimage banner ad
image banner ad

YTRF - Trefoil Island

Located in Woolnorth, Australia

ICAO - , IATA -

Data provided by Airmate  

General information

Coordinates: S40°37'56" E144°41'12"
Elevation is 218 feet MSL.
Magnetic variation is 13° East
View others Airports in Tasmania

Operational data

Special qualification required
Current time UTC:
Current local time:
Weather at : - ( 0 km )
METAR: OPLA 131625Z 05004KT 5000 FU FEW040 SCT100 23/16 Q1013 NOSIG RMK QFE987 A29.93
View NOTAMs / SUP AIP / TFR affecting this airport [VIEW]
Communications frequencies: [VIEW]

Runways:

RWY identifierQFULength (ft)Width (ft)SurfaceLDA (ft)
09107°137559DIRT
27287°137559DIRT

Airport contact information

Address: Woolnorth Australia

Satellite view of YTRF